City Of Cleveland — WDC2358 — position and weather

sailwx.info

Track history (hours):
 
Tides and Currents Weather Stations Pressure Air Temp Water Temp Dewpoint Dewpoint Depression Visibility Wind Speed Wind Dir Waves Ship Positions

City Of Cleveland

Owner: JANTRAN, INC., ROSEDALE, MS. More information available from US FCC via Universal Licensing System and Coast Guard Vessel Documentation Center.

Last reported at 2016-Apr-28 18:16 UTC. Time now 2016-Apr-29 19:50 UTC.
Position N 32°35' W 091°07'.

Length 42 m; draft 12.5 m.

Type: Towing. MMSI: 366991810.

Date/timePositionNaut miles runAvg speedWind from/ knotsBaromVisibWave heightAir tempDewpointWater temp
2016-Apr-28 18:16N 32°35' W 091°07'6 5.4
2016-Apr-28 17:14N 32°29' W 091°07'4 5.6
2016-Apr-28 16:33N 32°27' W 091°04'5 4.7
2016-Apr-28 15:33N 32°23' W 090°60'1 0.5
2016-Apr-28 14:33N 32°23' W 091°00'3 2.5
2016-Apr-28 13:33N 32°21' W 090°58'0 0.0
2016-Apr-28 12:33N 32°21' W 090°58'0 0.0
2016-Apr-28 11:33N 32°21' W 090°58'2 2.0
2016-Apr-28 10:33N 32°21' W 090°55'4 4.2
2016-Apr-28 09:33N 32°17' W 090°57'5 5.0
2016-Apr-28 08:33N 32°12' W 090°59'5 5.0
2016-Apr-28 07:33N 32°07' W 091°01'4 4.2
2016-Apr-28 06:33N 32°07' W 091°06'5 4.9
2016-Apr-28 05:33N 32°02' W 091°04'  
2016-Apr-25 01:33N 29°56' W 090°12'3 3.0
2016-Apr-25 00:33N 29°55' W 090°08'5 4.7
2016-Apr-24 23:33N 29°57' W 090°03'2 1.6
2016-Apr-24 22:33N 29°57' W 090°02'4 4.0
2016-Apr-24 21:33N 29°55' W 089°58'1 1.3
2016-Apr-24 20:33N 29°55' W 089°56'0 0.0
2016-Apr-24 19:33N 29°55' W 089°56'0 0.1
2016-Apr-24 18:33N 29°55' W 089°56'0 0.0
2016-Apr-24 17:33N 29°55' W 089°56'0 0.0
2016-Apr-24 16:33N 29°55' W 089°56'0 0.0
2016-Apr-24 15:33N 29°55' W 089°56'0 0.0
2016-Apr-24 14:33N 29°55' W 089°56'0 0.1
2016-Apr-24 13:33N 29°55' W 089°56'0 0.2
2016-Apr-24 12:33N 29°55' W 089°56'1 0.5
2016-Apr-24 11:33N 29°55' W 089°56'0 0.0
2016-Apr-24 10:33N 29°55' W 089°56'0 0.0
2016-Apr-24 09:33N 29°55' W 089°56'0 0.2
2016-Apr-24 08:33N 29°55' W 089°56'7 7.2
2016-Apr-24 07:34N 29°57' W 090°04'4 4.2
2016-Apr-24 06:33N 29°57' W 090°08'2 2.4
2016-Apr-24 05:33N 29°56' W 090°11'  
2016-Apr-20 14:33N 32°05' W 091°05'4 3.6
2016-Apr-20 13:33N 32°07' W 091°01'7 6.8
2016-Apr-20 12:33N 32°14' W 090°59'8 7.7
2016-Apr-20 11:33N 32°20' W 090°55'6 5.9
2016-Apr-20 10:33N 32°24' W 090°60'8 7.8
2016-Apr-20 09:33N 32°29' W 091°07'7 7.4
2016-Apr-20 08:33N 32°36' W 091°09'  
Track history (hours):
 
Tides and Currents Weather Stations Pressure Air Temp Water Temp Dewpoint Dewpoint Depression Visibility Wind Speed Wind Dir Waves Ship Positions

City Of Cleveland

Owner: JANTRAN, INC., ROSEDALE, MS. More information available from US FCC via Universal Licensing System and Coast Guard Vessel Documentation Center.

Last reported at 2016-Apr-28 18:16 UTC. Time now 2016-Apr-29 19:50 UTC.
Position N 32°35' W 091°07'.

Length 42 m; draft 12.5 m.

Type: Towing. MMSI: 366991810.

Date/timePositionNaut miles runAvg speedWind from/ knotsBaromVisibWave heightAir tempDewpointWater temp
2016-Apr-28 18:16N 32°35' W 091°07'6 5.4
2016-Apr-28 17:14N 32°29' W 091°07'4 5.6
2016-Apr-28 16:33N 32°27' W 091°04'5 4.7
2016-Apr-28 15:33N 32°23' W 090°60'1 0.5
2016-Apr-28 14:33N 32°23' W 091°00'3 2.5
2016-Apr-28 13:33N 32°21' W 090°58'0 0.0
2016-Apr-28 12:33N 32°21' W 090°58'0 0.0
2016-Apr-28 11:33N 32°21' W 090°58'2 2.0
2016-Apr-28 10:33N 32°21' W 090°55'4 4.2
2016-Apr-28 09:33N 32°17' W 090°57'5 5.0
2016-Apr-28 08:33N 32°12' W 090°59'5 5.0
2016-Apr-28 07:33N 32°07' W 091°01'4 4.2
2016-Apr-28 06:33N 32°07' W 091°06'5 4.9
2016-Apr-28 05:33N 32°02' W 091°04'  
2016-Apr-25 01:33N 29°56' W 090°12'3 3.0
2016-Apr-25 00:33N 29°55' W 090°08'5 4.7
2016-Apr-24 23:33N 29°57' W 090°03'2 1.6
2016-Apr-24 22:33N 29°57' W 090°02'4 4.0
2016-Apr-24 21:33N 29°55' W 089°58'1 1.3
2016-Apr-24 20:33N 29°55' W 089°56'0 0.0
2016-Apr-24 19:33N 29°55' W 089°56'0 0.1
2016-Apr-24 18:33N 29°55' W 089°56'0 0.0
2016-Apr-24 17:33N 29°55' W 089°56'0 0.0
2016-Apr-24 16:33N 29°55' W 089°56'0 0.0
2016-Apr-24 15:33N 29°55' W 089°56'0 0.0
2016-Apr-24 14:33N 29°55' W 089°56'0 0.1
2016-Apr-24 13:33N 29°55' W 089°56'0 0.2
2016-Apr-24 12:33N 29°55' W 089°56'1 0.5
2016-Apr-24 11:33N 29°55' W 089°56'0 0.0
2016-Apr-24 10:33N 29°55' W 089°56'0 0.0
2016-Apr-24 09:33N 29°55' W 089°56'0 0.2
2016-Apr-24 08:33N 29°55' W 089°56'7 7.2
2016-Apr-24 07:34N 29°57' W 090°04'4 4.2
2016-Apr-24 06:33N 29°57' W 090°08'2 2.4
2016-Apr-24 05:33N 29°56' W 090°11'  
2016-Apr-20 14:33N 32°05' W 091°05'4 3.6
2016-Apr-20 13:33N 32°07' W 091°01'7 6.8
2016-Apr-20 12:33N 32°14' W 090°59'8 7.7
2016-Apr-20 11:33N 32°20' W 090°55'6 5.9
2016-Apr-20 10:33N 32°24' W 090°60'8 7.8
2016-Apr-20 09:33N 32°29' W 091°07'7 7.4
2016-Apr-20 08:33N 32°36' W 091°09'  

Dump ship's entire track history